createdAt,value
2023-04-16T00:02:05.580Z,7.23
2023-04-16T00:05:08.079Z,7.97
2023-04-16T00:08:09.934Z,7.80
2023-04-16T00:11:12.023Z,8.13
2023-04-16T00:14:14.117Z,8.60
2023-04-16T00:17:16.099Z,8.33
2023-04-16T00:20:18.122Z,6.83
2023-04-16T00:23:20.283Z,6.70
2023-04-16T00:26:22.226Z,7.73
2023-04-16T00:29:24.118Z,12.23
2023-04-16T00:32:26.030Z,8.83
2023-04-16T00:35:27.889Z,8.97
2023-04-16T00:38:30.538Z,9.23
2023-04-16T00:41:32.349Z,9.73
2023-04-16T00:44:37.618Z,10.27
2023-04-16T00:47:39.681Z,9.93
2023-04-16T00:50:41.830Z,9.10
2023-04-16T00:53:44.511Z,8.07
2023-04-16T00:56:47.129Z,10.03
2023-04-16T00:59:49.027Z,8.30
2023-04-16T01:02:51.368Z,10.40
2023-04-16T01:05:53.317Z,9.33
2023-04-16T01:08:55.118Z,8.00
2023-04-16T01:11:56.899Z,11.63
2023-04-16T01:14:58.783Z,12.17
2023-04-16T01:18:00.754Z,10.13
2023-04-16T01:21:02.929Z,11.17
2023-04-16T01:24:05.512Z,11.37
2023-04-16T01:27:07.683Z,11.63
2023-04-16T01:30:09.788Z,13.03
2023-04-16T01:33:15.443Z,11.10
2023-04-16T01:36:17.544Z,12.30
2023-04-16T01:39:19.474Z,11.70
2023-04-16T01:42:21.420Z,12.40
2023-04-16T01:45:23.376Z,11.23
2023-04-16T01:48:25.432Z,10.43
2023-04-16T01:51:28.125Z,13.63
2023-04-16T01:54:30.329Z,12.77
2023-04-16T01:57:32.173Z,12.53
2023-04-16T02:00:33.998Z,16.00
2023-04-16T02:03:36.206Z,12.53
2023-04-16T02:06:39.365Z,12.33
2023-04-16T02:09:41.646Z,15.63
2023-04-16T02:12:43.661Z,13.30
2023-04-16T02:15:50.405Z,14.77
2023-04-16T02:18:52.257Z,12.57
2023-04-16T02:21:55.058Z,13.27
2023-04-16T02:24:56.983Z,16.77
2023-04-16T02:27:58.841Z,14.83
2023-04-16T02:31:00.805Z,14.33
2023-04-16T02:34:03.339Z,14.63
2023-04-16T02:37:05.499Z,16.00
2023-04-16T02:40:07.975Z,14.63
2023-04-16T02:43:09.813Z,15.37
2023-04-16T02:46:11.832Z,15.20
2023-04-16T02:49:13.693Z,14.93
2023-04-16T02:52:15.733Z,15.30
2023-04-16T02:55:17.747Z,14.67
2023-04-16T02:58:21.115Z,14.77
2023-04-16T03:01:22.930Z,14.27
2023-04-16T03:04:24.838Z,15.50
2023-04-16T03:07:26.798Z,15.03
2023-04-16T03:10:28.565Z,15.93
2023-04-16T03:13:30.635Z,12.40
2023-04-16T03:16:32.441Z,15.80
2023-04-16T03:19:34.433Z,13.40
2023-04-16T03:22:37.558Z,13.20
2023-04-16T03:25:40.686Z,13.13
2023-04-16T03:28:42.547Z,14.97
2023-04-16T03:31:44.315Z,12.40
2023-04-16T03:34:46.125Z,13.10
2023-04-16T03:37:47.970Z,14.20
2023-04-16T03:40:49.810Z,12.13
2023-04-16T03:43:51.687Z,13.77
2023-04-16T03:46:53.596Z,13.57
2023-04-16T03:49:55.526Z,14.40
2023-04-16T03:52:57.350Z,16.43
2023-04-16T03:55:59.470Z,13.63
2023-04-16T03:59:01.768Z,14.60
2023-04-16T04:02:03.787Z,13.77
2023-04-16T04:05:05.970Z,13.07
2023-04-16T04:08:09.206Z,15.20
2023-04-16T04:11:11.042Z,16.03
2023-04-16T04:14:12.946Z,15.67
2023-04-16T04:17:14.769Z,13.40
2023-04-16T04:20:16.794Z,15.50
2023-04-16T04:23:18.574Z,14.47
2023-04-16T04:26:21.106Z,12.93
2023-04-16T04:29:23.159Z,11.93
2023-04-16T04:32:25.057Z,15.73
2023-04-16T04:35:27.072Z,13.00
2023-04-16T04:38:30.171Z,16.60
2023-04-16T04:41:32.006Z,17.20
2023-04-16T04:44:33.851Z,14.93
2023-04-16T04:47:35.668Z,14.33
2023-04-16T04:50:37.728Z,13.90
2023-04-16T04:53:39.567Z,14.00
2023-04-16T04:56:41.527Z,14.53
2023-04-16T04:59:43.472Z,14.90
2023-04-16T05:02:45.923Z,17.23
2023-04-16T05:05:47.885Z,12.80
2023-04-16T05:08:49.850Z,18.90
2023-04-16T05:11:51.893Z,17.90
2023-04-16T05:14:53.729Z,18.60
2023-04-16T05:17:58.326Z,18.27
2023-04-16T05:21:00.504Z,18.10
2023-04-16T05:24:02.448Z,17.43
2023-04-16T05:27:04.412Z,15.77
2023-04-16T05:30:07.057Z,17.53
2023-04-16T05:33:08.942Z,14.20
2023-04-16T05:36:10.859Z,12.77
2023-04-16T05:39:12.806Z,13.60
2023-04-16T05:42:14.962Z,14.90
2023-04-16T05:45:17.224Z,15.77
2023-04-16T05:48:20.228Z,14.27
2023-04-16T05:51:25.013Z,15.70
2023-04-16T05:54:26.836Z,15.53
2023-04-16T05:57:30.358Z,18.27
2023-04-16T06:00:35.646Z,18.37
2023-04-16T06:03:37.665Z,16.67
2023-04-16T06:06:40.830Z,15.57
2023-04-16T06:09:42.935Z,14.70
2023-04-16T06:12:44.907Z,11.87
2023-04-16T06:15:47.160Z,12.17
2023-04-16T06:18:48.991Z,11.07
2023-04-16T06:21:51.241Z,9.37
2023-04-16T06:24:53.717Z,8.90
2023-04-16T06:27:55.485Z,8.63
2023-04-16T06:30:57.720Z,7.90
2023-04-16T06:33:59.560Z,9.00
2023-04-16T06:37:01.782Z,8.07
2023-04-16T06:40:04.164Z,8.27
2023-04-16T06:43:06.508Z,7.37
2023-04-16T06:46:08.473Z,7.90
2023-04-16T06:49:10.418Z,7.53
2023-04-16T06:52:12.940Z,7.00
2023-04-16T06:55:15.002Z,6.13
2023-04-16T06:58:16.835Z,11.00
2023-04-16T07:01:18.880Z,13.90
2023-04-16T07:04:21.420Z,11.17
2023-04-16T07:07:23.411Z,6.73
2023-04-16T07:10:25.621Z,6.07
2023-04-16T07:13:27.715Z,6.23
2023-04-16T07:16:29.652Z,5.10
2023-04-16T07:19:32.840Z,5.37
2023-04-16T07:22:34.742Z,5.60
2023-04-16T07:25:36.934Z,5.93
2023-04-16T07:28:39.011Z,6.07
2023-04-16T07:31:40.951Z,8.87
2023-04-16T07:34:42.808Z,8.63
2023-04-16T07:37:45.140Z,7.23
2023-04-16T07:40:47.053Z,4.93
2023-04-16T07:43:49.228Z,5.87
2023-04-16T07:46:53.080Z,4.67
2023-04-16T07:49:55.058Z,9.27
2023-04-16T07:52:57.375Z,4.77
2023-04-16T07:55:59.410Z,5.07
2023-04-16T07:59:08.261Z,5.83
2023-04-16T08:02:17.005Z,5.73
2023-04-16T08:05:19.297Z,6.83
2023-04-16T08:08:23.888Z,4.47
2023-04-16T08:11:25.830Z,5.30
2023-04-16T08:14:27.662Z,4.60
2023-04-16T08:17:30.115Z,4.80
2023-04-16T08:20:32.770Z,4.77
2023-04-16T08:23:34.911Z,4.50
2023-04-16T08:26:37.325Z,4.90
2023-04-16T08:29:39.143Z,4.83
2023-04-16T08:32:41.523Z,4.13
2023-04-16T08:35:43.431Z,4.20
2023-04-16T08:38:45.313Z,4.70
2023-04-16T08:41:47.445Z,3.70
2023-04-16T08:44:51.328Z,4.23
2023-04-16T08:47:53.942Z,4.13
2023-04-16T08:50:56.703Z,5.73
2023-04-16T08:54:25.749Z,4.43
2023-04-16T08:57:35.678Z,6.07
2023-04-16T09:00:39.561Z,4.30
2023-04-16T09:03:42.130Z,5.37
2023-04-16T09:06:45.402Z,4.73
2023-04-16T09:09:51.049Z,4.23
2023-04-16T09:12:56.193Z,4.17
2023-04-16T09:15:58.128Z,4.13
2023-04-16T09:18:59.952Z,3.37
2023-04-16T09:22:01.940Z,2.97
2023-04-16T09:25:04.360Z,2.83
2023-04-16T09:28:06.429Z,2.77
2023-04-16T09:31:13.994Z,4.20
2023-04-16T09:34:15.786Z,3.30
2023-04-16T09:37:18.229Z,3.73
2023-04-16T09:40:25.060Z,3.97
2023-04-16T09:43:27.965Z,5.00
2023-04-16T09:46:35.041Z,4.17
2023-04-16T09:49:42.465Z,3.97
2023-04-16T09:52:47.830Z,4.17
2023-04-16T09:55:49.689Z,3.20
2023-04-16T09:58:56.201Z,4.53
2023-04-16T10:02:14.531Z,5.23
2023-04-16T10:05:20.334Z,5.17
2023-04-16T10:08:24.385Z,4.93
2023-04-16T10:11:26.444Z,3.03
2023-04-16T10:14:28.163Z,2.90
2023-04-16T10:17:31.565Z,1.90
2023-04-16T10:20:33.523Z,2.13
2023-04-16T10:23:35.604Z,3.30
2023-04-16T10:26:37.602Z,2.83
2023-04-16T10:29:39.698Z,4.00
2023-04-16T10:32:42.591Z,2.90
2023-04-16T10:35:50.147Z,3.30
2023-04-16T10:39:00.883Z,2.23
2023-04-16T10:42:13.548Z,2.67
2023-04-16T10:45:16.892Z,2.67
2023-04-16T10:48:19.514Z,3.47
2023-04-16T10:51:24.663Z,2.37
2023-04-16T10:54:31.089Z,3.37
2023-04-16T10:57:33.579Z,3.40
2023-04-16T11:00:50.935Z,4.60
2023-04-16T11:03:52.999Z,4.73
2023-04-16T11:07:19.301Z,5.63
2023-04-16T11:10:21.529Z,5.30
2023-04-16T11:13:25.694Z,3.53
2023-04-16T11:16:27.704Z,3.97
2023-04-16T11:19:29.933Z,5.83
2023-04-16T11:22:34.751Z,5.50
2023-04-16T11:25:37.046Z,3.33
2023-04-16T11:28:39.586Z,6.80
2023-04-16T11:31:41.545Z,2.80
2023-04-16T11:34:45.954Z,2.00
2023-04-16T11:37:50.531Z,2.37
2023-04-16T11:40:54.119Z,2.50
2023-04-16T11:43:55.901Z,3.43
2023-04-16T11:46:58.040Z,2.83
2023-04-16T11:50:16.674Z,2.80
2023-04-16T11:53:19.125Z,2.97
2023-04-16T11:56:34.976Z,2.63
2023-04-16T11:59:37.171Z,2.40
2023-04-16T12:02:59.364Z,3.33
2023-04-16T12:06:08.566Z,2.73
2023-04-16T12:09:27.354Z,4.00
2023-04-16T12:12:32.036Z,2.73
2023-04-16T12:15:55.255Z,2.80
2023-04-16T12:19:01.822Z,2.33
2023-04-16T12:22:03.643Z,1.80
2023-04-16T12:25:06.889Z,2.63
2023-04-16T12:28:08.778Z,2.93
2023-04-16T12:31:11.177Z,2.53
2023-04-16T12:34:15.248Z,2.43
2023-04-16T12:37:17.089Z,2.50
2023-04-16T12:40:18.948Z,3.70
2023-04-16T12:43:21.601Z,2.10
2023-04-16T12:46:23.553Z,1.90
2023-04-16T12:49:25.520Z,1.37
2023-04-16T12:52:27.560Z,1.80
2023-04-16T12:55:29.645Z,1.40
2023-04-16T12:58:31.444Z,1.50
2023-04-16T13:01:36.491Z,1.33
2023-04-16T13:04:38.691Z,0.90
2023-04-16T13:07:41.388Z,0.80
2023-04-16T13:10:43.242Z,1.17
2023-04-16T13:13:45.404Z,3.57
2023-04-16T13:16:47.346Z,4.43
2023-04-16T13:19:49.096Z,10.00
2023-04-16T13:22:50.934Z,6.03
2023-04-16T13:25:52.972Z,8.80
2023-04-16T13:28:54.891Z,8.03
2023-04-16T13:31:57.217Z,5.33
2023-04-16T13:34:59.559Z,3.13
2023-04-16T13:38:01.504Z,1.57
2023-04-16T13:41:03.445Z,1.10
2023-04-16T13:44:05.802Z,1.23
2023-04-16T13:47:08.156Z,0.60
2023-04-16T13:50:11.363Z,1.20
2023-04-16T13:53:13.914Z,0.77
2023-04-16T13:56:15.909Z,1.33
2023-04-16T13:59:18.287Z,0.80
2023-04-16T14:02:21.046Z,0.60
2023-04-16T14:05:25.202Z,1.47
2023-04-16T14:08:28.665Z,1.00
2023-04-16T14:11:31.179Z,1.53
2023-04-16T14:14:33.303Z,0.87
2023-04-16T14:17:35.854Z,1.20
2023-04-16T14:20:40.086Z,0.70
2023-04-16T14:23:42.211Z,0.83
2023-04-16T14:26:44.500Z,0.80
2023-04-16T14:29:47.124Z,0.80
2023-04-16T14:32:49.043Z,1.77
2023-04-16T14:35:51.422Z,1.30
2023-04-16T14:38:53.483Z,0.70
2023-04-16T14:41:55.438Z,1.10
2023-04-16T14:44:57.294Z,0.70
2023-04-16T14:47:59.143Z,0.87
2023-04-16T14:51:01.581Z,1.90
2023-04-16T14:54:03.666Z,1.37
2023-04-16T14:57:05.648Z,1.50
2023-04-16T15:00:10.042Z,1.97
2023-04-16T15:03:12.315Z,2.30
2023-04-16T15:06:17.287Z,1.33
2023-04-16T15:09:19.550Z,1.73
2023-04-16T15:12:21.412Z,1.03
2023-04-16T15:15:23.411Z,1.30
2023-04-16T15:18:25.913Z,3.00
2023-04-16T15:21:28.084Z,2.10
2023-04-16T15:24:29.876Z,3.17
2023-04-16T15:27:31.797Z,3.40
2023-04-16T15:30:33.826Z,2.60
2023-04-16T15:33:36.197Z,5.00
2023-04-16T15:36:38.012Z,4.50
2023-04-16T15:39:40.112Z,11.10
2023-04-16T15:42:43.613Z,21.90
2023-04-16T15:45:45.412Z,10.17
2023-04-16T15:48:47.408Z,9.60
2023-04-16T15:51:49.153Z,7.87
2023-04-16T15:54:50.998Z,4.20
2023-04-16T15:57:52.885Z,6.33
2023-04-16T16:00:54.743Z,3.83
2023-04-16T16:03:56.980Z,9.20
2023-04-16T16:06:58.932Z,8.93
2023-04-16T16:10:00.813Z,10.37
2023-04-16T16:13:05.474Z,4.93
2023-04-16T16:16:07.664Z,4.03
2023-04-16T16:19:09.840Z,5.17
2023-04-16T16:22:13.209Z,4.60
2023-04-16T16:25:15.265Z,4.53
2023-04-16T16:28:17.136Z,5.10
2023-04-16T16:31:19.594Z,3.93
2023-04-16T16:34:21.593Z,5.20
2023-04-16T16:37:23.643Z,5.43
2023-04-16T16:40:25.519Z,4.73
2023-04-16T16:43:27.410Z,5.60
2023-04-16T16:46:29.689Z,6.13
2023-04-16T16:49:32.232Z,5.43
2023-04-16T16:52:34.099Z,5.03
2023-04-16T16:55:36.396Z,7.20
2023-04-16T16:58:38.548Z,6.57
2023-04-16T17:01:40.592Z,8.00
2023-04-16T17:04:42.670Z,6.47
2023-04-16T17:07:44.703Z,7.10
2023-04-16T17:10:46.728Z,6.93
2023-04-16T17:13:48.612Z,7.97
2023-04-16T17:16:50.532Z,8.63
2023-04-16T17:19:52.633Z,11.37
2023-04-16T17:22:54.579Z,9.57
2023-04-16T17:25:56.522Z,10.20
2023-04-16T17:28:59.364Z,9.13
2023-04-16T17:32:01.679Z,9.33
2023-04-16T17:35:04.507Z,11.00
2023-04-16T17:38:06.820Z,7.20
2023-04-16T17:41:09.007Z,9.20
2023-04-16T17:44:11.931Z,9.73
2023-04-16T17:47:14.087Z,12.20
2023-04-16T17:50:16.339Z,13.23
2023-04-16T17:53:18.484Z,14.27
2023-04-16T17:56:21.559Z,12.50
2023-04-16T17:59:25.414Z,16.53
2023-04-16T18:02:27.495Z,14.97
2023-04-16T18:05:30.939Z,12.87
2023-04-16T18:08:33.835Z,21.27
2023-04-16T18:11:35.885Z,22.70
2023-04-16T18:14:38.901Z,16.23
2023-04-16T18:17:40.824Z,12.10
2023-04-16T18:20:42.709Z,13.20
2023-04-16T18:23:44.625Z,11.90
2023-04-16T18:26:49.414Z,9.90
2023-04-16T18:29:51.510Z,13.73
2023-04-16T18:33:16.473Z,14.33
2023-04-16T18:36:15.058Z,14.33
2023-04-16T18:39:17.077Z,20.73
2023-04-16T18:42:19.104Z,14.87
2023-04-16T18:45:22.115Z,12.87
2023-04-16T18:48:24.420Z,11.87
2023-04-16T18:51:27.432Z,10.27
2023-04-16T18:54:29.247Z,19.57
2023-04-16T18:57:31.120Z,20.13
2023-04-16T19:00:33.156Z,18.53
2023-04-16T19:03:35.092Z,15.03
2023-04-16T19:06:37.373Z,12.30
2023-04-16T19:09:39.401Z,10.87
2023-04-16T19:12:41.478Z,9.73
2023-04-16T19:15:43.369Z,10.07
2023-04-16T19:18:45.066Z,13.13
2023-04-16T19:21:47.004Z,10.43
2023-04-16T19:24:49.217Z,9.50
2023-04-16T19:27:51.264Z,9.43
2023-04-16T19:30:54.119Z,9.87
2023-04-16T19:33:56.121Z,9.47
2023-04-16T19:36:57.973Z,11.17
2023-04-16T19:39:59.815Z,11.43
2023-04-16T19:43:01.674Z,13.77
2023-04-16T19:46:03.935Z,14.03
2023-04-16T19:49:06.062Z,12.80
2023-04-16T19:52:08.738Z,10.77
2023-04-16T19:55:10.739Z,9.87
2023-04-16T19:58:14.457Z,11.70
2023-04-16T20:01:16.404Z,9.17
2023-04-16T20:04:18.597Z,11.27
2023-04-16T20:07:20.629Z,10.43
2023-04-16T20:10:23.413Z,10.03
2023-04-16T20:13:27.185Z,7.00
2023-04-16T20:16:30.689Z,8.87
2023-04-16T20:19:37.855Z,6.33
2023-04-16T20:22:40.221Z,6.30
2023-04-16T20:25:46.465Z,6.47
2023-04-16T20:28:48.300Z,8.30
2023-04-16T20:31:50.260Z,7.03
2023-04-16T20:34:52.119Z,11.10
2023-04-16T20:37:53.845Z,6.77
2023-04-16T20:41:09.975Z,7.27
2023-04-16T20:44:18.380Z,6.27
2023-04-16T20:47:21.916Z,8.17
2023-04-16T20:50:24.684Z,6.07
2023-04-16T20:53:27.192Z,6.67
2023-04-16T20:56:29.302Z,7.43
2023-04-16T20:59:31.528Z,7.43
2023-04-16T21:02:33.797Z,5.33
2023-04-16T21:05:36.275Z,5.17
2023-04-16T21:08:38.013Z,3.47
2023-04-16T21:11:39.810Z,4.13
2023-04-16T21:14:41.759Z,4.47
2023-04-16T21:17:43.635Z,5.47
2023-04-16T21:20:45.513Z,5.10
2023-04-16T21:23:47.386Z,6.37
2023-04-16T21:26:49.208Z,5.10
2023-04-16T21:29:51.882Z,3.93
2023-04-16T21:32:53.851Z,8.47
2023-04-16T21:35:55.840Z,7.47
2023-04-16T21:38:57.669Z,5.83
2023-04-16T21:41:59.493Z,7.07
2023-04-16T21:45:01.309Z,8.50
2023-04-16T21:48:03.285Z,7.27
2023-04-16T21:51:08.250Z,5.47
2023-04-16T21:54:10.047Z,6.23
2023-04-16T21:57:12.450Z,7.33
2023-04-16T22:00:14.618Z,6.07
2023-04-16T22:03:17.454Z,8.27
2023-04-16T22:06:20.478Z,5.50
2023-04-16T22:09:24.837Z,7.17
2023-04-16T22:12:26.687Z,5.10
2023-04-16T22:15:29.745Z,5.63
2023-04-16T22:18:32.997Z,6.10
2023-04-16T22:21:35.112Z,5.73
2023-04-16T22:24:36.845Z,5.23
2023-04-16T22:27:39.086Z,5.67
2023-04-16T22:30:40.835Z,4.97
2023-04-16T22:33:42.657Z,3.83
2023-04-16T22:36:44.623Z,5.13
2023-04-16T22:39:46.486Z,6.13
2023-04-16T22:42:48.294Z,7.73
2023-04-16T22:45:50.093Z,4.73
2023-04-16T22:48:52.177Z,10.43
2023-04-16T22:51:54.147Z,3.87
2023-04-16T22:54:55.937Z,4.37
2023-04-16T22:57:57.754Z,4.40
2023-04-16T23:01:01.612Z,6.93
2023-04-16T23:04:03.628Z,6.07
2023-04-16T23:07:05.450Z,4.80
2023-04-16T23:10:08.652Z,4.60
2023-04-16T23:13:10.903Z,4.17
2023-04-16T23:16:12.759Z,4.50
2023-04-16T23:19:15.953Z,5.03
2023-04-16T23:22:17.768Z,7.93
2023-04-16T23:25:19.682Z,6.20
2023-04-16T23:28:22.192Z,5.33
2023-04-16T23:31:24.000Z,5.30
2023-04-16T23:34:26.025Z,5.83
2023-04-16T23:37:27.936Z,6.07
2023-04-16T23:40:30.925Z,4.73
2023-04-16T23:43:33.060Z,6.33
2023-04-16T23:46:35.055Z,4.60
2023-04-16T23:49:37.395Z,6.80
2023-04-16T23:52:39.983Z,5.00
2023-04-16T23:55:41.882Z,5.67
2023-04-16T23:58:43.619Z,5.07
